Date,TemperatureHighF,TemperatureAvgF,TemperatureLowF,DewpointHighF,DewpointAvgF,DewpointLowF,HumidityHigh,HumidityAvg,HumidityLow,PressureMaxIn,PressureMinIn,WindSpeedMaxMPH,WindSpeedAvgMPH,GustSpeedMaxMPH,PrecipitationSumIn
2013-6-1,80,71,64,68,65,62,96,82,63,29.83,29.63,22,3,22,0.17
2013-6-2,73,66,56,66,59,47,96,78,64,29.91,29.60,21,4,21,0.00
2013-6-3,68,57,46,48,42,36,86,60,36,30.04,29.91,12,1,13,0.00
2013-6-4,69,59,47,52,46,34,95,65,41,30.15,30.03,10,1,11,0.00
2013-6-5,73,61,49,52,46,38,85,61,35,30.12,29.93,15,1,15,0.00
2013-6-6,68,60,54,56,50,43,88,68,60,29.94,29.79,14,2,14,0.00
2013-6-7,62,57,51,54,52,49,94,83,75,29.86,29.80,11,0,11,0.00
2013-6-8,71,62,56,57,54,52,91,75,54,30.02,29.85,9,0,9,0.00
2013-6-9,75,66,55,60,57,53,96,74,52,30.06,29.89,18,2,19,0.00
2013-6-10,69,65,61,68,63,58,97,95,81,29.89,29.67,9,0,13,0.53
2013-6-11,81,71,63,68,65,62,98,81,56,29.83,29.70,14,2,15,0.02
2013-6-12,75,70,62,68,65,60,96,86,74,29.87,29.57,13,0,13,0.30
2013-6-13,77,68,61,64,60,56,97,80,50,29.74,29.44,18,3,19,1.94
2013-6-22,86,72,70,73,69,68,93,89,66,30.01,29.92,17,1,17,0.87
2013-6-23,89,78,69,73,70,64,96,76,53,30.01,29.89,27,3,27,0.01
2013-6-24,87,78,67,72,69,65,94,75,58,30.01,29.85,16,3,18,0.01
2013-6-25,85,75,68,75,70,64,95,83,69,29.94,29.74,15,2,18,0.25
2013-6-26,83,73,67,72,69,65,97,86,68,29.85,29.67,17,2,18,0.45
2013-6-27,82,72,66,72,69,65,98,90,66,29.70,29.56,15,1,17,0.81
2013-6-28,77,67,63,68,64,59,99,92,67,29.57,29.45,17,1,20,1.08
2013-6-29,64,64,63,63,63,62,98,97,96,29.50,29.47,0,0,0,0.00